This is the latest recevied weather packets stored in our database for station/object M0TJX-1. If no packets are shown the sender has not sent any weather packets the latest 10 day(s).
| Time | Temp. | Humidity | Pressure | Rain* | Wind** | Luminosity | Snow |
|---|---|---|---|---|---|---|---|
| 1787437530 | 13.89° C | 76% | 1024.6 hPa | 0 mm | - | - | - |
| 1787436630 | 13.89° C | 74% | 1024.6 hPa | 0 mm | - | - | - |
| 1787435730 | 14.44° C | 72% | 1024.8 hPa | 0 mm | - | - | - |
| 1787434830 | 14.44° C | 71% | 1024.6 hPa | 0 mm | - | - | - |
| 1787433930 | 15° C | 70% | 1024.5 hPa | 0 mm | - | - | - |
| 1787433030 | 15.56° C | 70% | 1024.6 hPa | 0 mm | - | - | - |
| 1787432130 | 16.11° C | 68% | 1024.6 hPa | 0 mm | - | - | - |
| 1787431230 | 16.11° C | 66% | 1024.4 hPa | 0 mm | - | - | - |
| 1787430330 | 16.67° C | 64% | 1024.5 hPa | 0 mm | - | - | - |
| 1787429430 | 17.22° C | 63% | 1024.4 hPa | 0 mm | - | - | - |
| 1787428530 | 17.78° C | 61% | 1024.3 hPa | 0 mm | - | - | - |
| 1787426730 | 19.44° C | 55% | 1023.9 hPa | 0 mm | - | - | - |
| 1787424930 | 20.56° C | 49% | 1023.7 hPa | 0 mm | - | - | - |
| 1787424030 | 21.11° C | 46% | 1023.7 hPa | 0 mm | - | - | - |
| 1787423130 | 21.11° C | 45% | 1023.5 hPa | 0 mm | - | - | - |
| 1787422231 | 20.56° C | 46% | 1023.5 hPa | 0 mm | - | - | - |
| 1787421330 | 20.56° C | 46% | 1023.5 hPa | 0 mm | - | - | - |
| 1787419530 | 21.11° C | 44% | 1023.5 hPa | 0 mm | - | - | - |
| 1787417730 | 22.78° C | 41% | 1023.3 hPa | 0 mm | - | - | - |
| 1787416830 | 24.44° C | 40% | 1023.4 hPa | 0 mm | - | - | - |
| 1787415930 | 23.89° C | 40% | 1023.4 hPa | 0 mm | - | - | - |
| 1787414130 | 22.22° C | 44% | 1023.4 hPa | 0 mm | - | - | - |
| 1787412331 | 23.33° C | 39% | 1023.4 hPa | 0 mm | - | - | - |
| 1787411430 | 24.44° C | 39% | 1023.4 hPa | 0 mm | - | - | - |
| 1787410530 | 23.89° C | 38% | 1023.4 hPa | 0 mm | - | - | - |
* Rain latest hour (hover to see other rain measurements)
** Current wind speed in m/s (hover to see current wind gust speed)